Time;durP1;ratioP1;P1;durP2;ratioP2;P2;SDS_P1;SDS_P2;PMS_P1;PMS_P2;Temp;Humidity;BMP_temperature;BMP_pressure;BME280_temperature;BME280_humidity;BME280_pressure;Samples;Min_cycle;Max_cycle;Signal;HPM_P1;HPM_P2
2022/07/05 00:01:01;;;;;;;2.03;1.90;;;;;;;20.91;63.01;98900.44;5010531;27;104283;-71
2022/07/05 00:03:29;;;;;;;2.55;2.10;;;;;;;20.74;63.70;98898.78;5008507;27;103426;-71
2022/07/05 00:05:57;;;;;;;2.58;2.05;;;;;;;20.83;63.76;98896.91;5013664;27;102826;-71
2022/07/05 00:08:28;;;;;;;2.78;2.50;;;;;;;20.86;63.99;98905.44;5029642;27;102731;-71
2022/07/05 00:10:56;;;;;;;2.30;2.10;;;;;;;20.90;63.24;98906.78;5009312;27;103562;-71
2022/07/05 00:13:24;;;;;;;3.13;2.10;;;;;;;20.83;62.84;98907.66;5024334;27;103218;-71
2022/07/05 00:15:55;;;;;;;3.25;1.80;;;;;;;20.83;62.67;98903.94;5025435;27;102725;-71
2022/07/05 00:18:23;;;;;;;2.20;2.00;;;;;;;20.89;62.36;98897.06;5024856;27;103850;-71
2022/07/05 00:20:51;;;;;;;1.80;1.70;;;;;;;20.89;62.57;98897.06;5027434;27;104335;-71
2022/07/05 00:23:19;;;;;;;2.38;2.08;;;;;;;20.78;63.02;98897.41;5026193;27;103185;-71
2022/07/05 00:25:49;;;;;;;2.42;1.80;;;;;;;20.66;63.67;98898.78;5028196;27;102684;-71
2022/07/05 00:28:17;;;;;;;2.75;2.20;;;;;;;20.50;64.75;98896.09;5027305;27;103914;-71
2022/07/05 00:30:46;;;;;;;2.17;1.90;;;;;;;20.40;65.24;98898.13;5010951;27;104309;-71
2022/07/05 00:33:15;;;;;;;2.08;1.90;;;;;;;20.43;64.91;98900.47;5020325;27;103280;-71
2022/07/05 00:35:43;;;;;;;2.50;2.00;;;;;;;20.39;64.84;98896.44;5010309;27;102913;-71
2022/07/05 00:38:11;;;;;;;2.75;2.00;;;;;;;20.44;64.14;98896.78;5008641;27;104579;-71
2022/07/05 00:40:43;;;;;;;2.13;1.90;;;;;;;20.48;63.73;98900.81;5030038;27;104067;-71
2022/07/05 00:43:11;;;;;;;2.00;1.90;;;;;;;20.44;64.17;98899.44;5023745;27;103240;-71
2022/07/05 00:45:38;;;;;;;2.30;2.10;;;;;;;20.47;64.18;98897.28;5011942;27;102811;-71
2022/07/05 00:48:06;;;;;;;2.22;1.85;;;;;;;20.42;64.57;98893.44;5023149;27;104422;-71
2022/07/05 00:50:36;;;;;;;2.50;1.80;;;;;;;20.41;64.24;98897.09;5023874;27;103864;-71
2022/07/05 00:53:11;;;;;;;2.42;2.05;;;;;;;20.27;65.06;98895.13;5005330;27;103264;-71
2022/07/05 00:55:39;;;;;;;2.10;1.95;;;;;;;20.16;65.27;98899.75;5005551;27;102837;-71
2022/07/05 00:58:07;;;;;;;2.53;2.08;;;;;;;20.18;64.70;98900.41;5021635;27;104291;-71
2022/07/05 01:00:35;;;;;;;2.55;1.77;;;;;;;20.19;64.76;98909.31;5006191;27;103424;-71
2022/07/05 01:03:03;;;;;;;2.43;1.80;;;;;;;20.20;64.95;98900.28;4999149;27;103434;-71
2022/07/05 01:05:33;;;;;;;3.10;2.10;;;;;;;20.20;64.74;98901.13;5010311;27;102922;-71
2022/07/05 01:08:02;;;;;;;2.42;2.10;;;;;;;20.08;65.58;98902.44;5026033;27;103110;-71
2022/07/05 01:10:31;;;;;;;2.20;2.00;;;;;;;19.98;66.06;98901.75;5022900;27;104265;-71
2022/07/05 01:13:02;;;;;;;2.78;1.90;;;;;;;19.98;65.63;98907.13;5009765;27;104263;-71
2022/07/05 01:15:30;;;;;;;2.83;2.53;;;;;;;19.55;68.14;98910.00;5007443;27;102923;-71
2022/07/05 01:17:59;;;;;;;2.57;2.10;;;;;;;19.57;67.96;98914.22;5011476;27;103087;-71
2022/07/05 01:20:27;;;;;;;3.30;2.60;;;;;;;19.38;68.39;98909.13;5003832;27;104249;-71
2022/07/05 01:22:59;;;;;;;1.95;1.80;;;;;;;19.59;67.06;98917.56;5009490;27;104163;-71
2022/07/05 01:25:29;;;;;;;1.80;1.70;;;;;;;19.77;65.61;98904.06;5008666;27;102807;-71
2022/07/05 01:27:59;;;;;;;3.00;1.80;;;;;;;19.88;65.79;98913.63;5014569;27;104190;-71
2022/07/05 01:30:28;;;;;;;2.57;1.97;;;;;;;19.83;65.97;98911.44;5022252;27;105304;-71
2022/07/05 01:32:55;;;;;;;3.22;2.28;;;;;;;19.42;68.71;98920.34;5012679;27;103295;-71
2022/07/05 01:35:23;;;;;;;2.53;2.33;;;;;;;19.43;68.17;98916.66;5027145;27;102908;-71
2022/07/05 01:37:52;;;;;;;1.98;1.80;;;;;;;19.62;66.63;98906.50;5008354;27;102879;-71
2022/07/05 01:40:22;;;;;;;2.28;2.08;;;;;;;19.28;68.73;98912.91;5023126;27;104379;-71
2022/07/05 01:42:50;;;;;;;2.50;2.30;;;;;;;18.99;69.97;98919.44;5020932;27;103215;-71
2022/07/05 01:48:02;;;;;;;2.90;2.42;;;;;;;18.11;73.14;98926.72;5008252;27;104204;-71
2022/07/05 01:50:34;;;;;;;2.35;2.15;;;;;;;18.73;70.96;98917.75;5006849;27;104513;-71
2022/07/05 01:53:04;;;;;;;2.40;2.20;;;;;;;18.95;69.74;98923.41;5018666;27;104706;-71
2022/07/05 01:55:34;;;;;;;3.53;2.40;;;;;;;18.98;69.61;98923.09;5013999;27;103014;-71
2022/07/05 01:58:02;;;;;;;2.10;1.90;;;;;;;19.14;68.59;98916.19;5020123;27;102703;-71
2022/07/05 02:00:30;;;;;;;3.58;3.20;;;;;;;18.77;70.16;98929.84;5021206;27;103853;-71
2022/07/05 02:02:59;;;;;;;4.45;3.20;;;;;;;18.39;72.24;98925.66;5016447;27;103179;-71
2022/07/05 02:05:29;;;;;;;4.70;3.40;;;;;;;18.18;73.12;98935.84;5019013;27;102734;-71
2022/07/05 02:07:59;;;;;;;3.30;2.80;;;;;;;18.51;71.78;98927.13;5006018;27;104097;-71
2022/07/05 02:10:27;;;;;;;3.63;2.72;;;;;;;18.58;71.17;98924.69;5000960;27;106436;-69
2022/07/05 02:12:56;;;;;;;3.92;2.90;;;;;;;18.37;71.54;98922.28;5007769;27;104133;-69
2022/07/05 02:15:27;;;;;;;3.47;2.43;;;;;;;18.43;71.52;98921.69;5003081;27;103000;-70
2022/07/05 02:17:55;;;;;;;3.57;2.07;;;;;;;18.67;70.29;98919.22;5021915;27;103180;-71
2022/07/05 02:20:23;;;;;;;3.03;2.30;;;;;;;18.77;69.49;98917.28;5011848;27;104721;-72
2022/07/05 02:22:52;;;;;;;2.33;2.10;;;;;;;18.78;69.28;98916.28;5028058;27;103240;-71
2022/07/05 02:25:22;;;;;;;1.92;1.83;;;;;;;18.86;68.57;98919.00;5025278;27;102772;-71
2022/07/05 02:27:52;;;;;;;2.80;2.22;;;;;;;18.75;69.56;98911.25;5009955;27;104155;-71
2022/07/05 02:30:22;;;;;;;2.53;2.25;;;;;;;18.71;70.09;98914.41;5022985;27;104195;-71
2022/07/05 02:32:52;;;;;;;3.20;2.00;;;;;;;18.77;69.47;98911.09;5005331;27;103197;-71
2022/07/05 02:35:19;;;;;;;2.40;2.20;;;;;;;18.78;69.40;98904.75;5023691;27;102799;-71
2022/07/05 02:37:47;;;;;;;3.37;2.50;;;;;;;18.49;71.24;98913.06;5007998;27;106009;-71
2022/07/05 02:40:15;;;;;;;3.85;2.40;;;;;;;18.32;71.51;98913.91;5010790;27;105047;-71
2022/07/05 02:42:49;;;;;;;2.72;2.38;;;;;;;18.26;72.14;98917.19;5011122;27;103188;-71
2022/07/05 02:45:18;;;;;;;2.63;2.30;;;;;;;18.26;71.29;98917.19;5011636;27;102903;-71
2022/07/05 02:47:54;;;;;;;2.20;1.77;;;;;;;18.38;71.06;98918.63;5011172;27;103655;-71
2022/07/05 02:50:22;;;;;;;2.47;2.28;;;;;;;18.30;71.28;98926.59;5032737;27;104182;-71
2022/07/05 02:52:52;;;;;;;2.60;2.40;;;;;;;18.04;72.86;98931.03;5012056;27;103796;-70
2022/07/05 02:55:21;;;;;;;2.90;2.47;;;;;;;17.96;72.34;98935.28;5017805;27;102767;-71
2022/07/05 02:57:51;;;;;;;2.90;2.10;;;;;;;18.16;71.60;98935.16;5016294;27;103678;-71
2022/07/05 03:00:20;;;;;;;1.90;1.80;;;;;;;18.27;70.54;98938.41;5013580;27;103954;-71
2022/07/05 03:02:49;;;;;;;1.83;1.73;;;;;;;18.39;69.51;98931.84;5036934;27;105356;-74
2022/07/05 03:05:19;;;;;;;3.20;2.63;;;;;;;18.14;71.54;98937.13;5030389;27;102964;-74
2022/07/05 03:08:00;;;;;;;3.60;2.50;;;;;;;17.77;73.00;98935.41;5016674;27;103951;-74
2022/07/05 03:10:30;;;;;;;2.85;2.58;;;;;;;17.57;74.09;98941.03;5014789;27;105293;-74
2022/07/05 03:13:00;;;;;;;3.10;2.30;;;;;;;17.62;73.90;98942.28;5014934;27;103197;-74
2022/07/05 03:15:28;;;;;;;3.25;2.50;;;;;;;17.51;74.55;98933.59;5012859;27;102731;-74
2022/07/05 03:17:56;;;;;;;2.50;2.30;;;;;;;17.51;74.42;98939.78;5011572;27;102966;-70
2022/07/05 03:20:27;;;;;;;2.97;2.65;;;;;;;17.38;74.90;98939.25;5015344;27;105092;-69
2022/07/05 03:22:58;;;;;;;2.70;2.20;;;;;;;17.51;74.34;98939.78;5030666;27;103429;-69
2022/07/05 03:25:34;;;;;;;2.58;2.28;;;;;;;17.80;72.09;98939.63;5020029;27;102779;-69
2022/07/05 03:28:06;;;;;;;3.13;2.53;;;;;;;17.57;73.03;98935.69;5009634;27;103086;-69
2022/07/05 03:30:34;;;;;;;3.17;2.43;;;;;;;17.30;75.01;98936.47;5008429;27;104140;-69
2022/07/05 03:33:02;;;;;;;2.43;2.23;;;;;;;17.43;74.51;98937.00;5024923;27;103228;-70
2022/07/05 03:35:35;;;;;;;2.00;1.58;;;;;;;17.74;72.33;98933.03;5027707;27;102726;-70
2022/07/05 03:38:05;;;;;;;2.57;1.90;;;;;;;17.88;71.87;98937.88;5018539;27;105058;-69
2022/07/05 03:40:33;;;;;;;2.40;2.20;;;;;;;17.84;72.49;98947.19;5028424;27;104351;-69
2022/07/05 03:43:01;;;;;;;1.63;1.52;;;;;;;17.98;71.07;98948.50;5029446;27;103219;-70
2022/07/05 03:45:33;;;;;;;1.70;1.60;;;;;;;18.06;70.35;98947.75;5009223;27;103100;-70
2022/07/05 03:48:02;;;;;;;3.23;2.60;;;;;;;17.76;72.08;98955.13;5009271;27;104238;-69
2022/07/05 03:50:53;;;;;;;3.35;2.95;;;;;;;17.41;74.39;98954.97;5023172;27;103344;-68
2022/07/05 03:53:21;;;;;;;2.78;2.42;;;;;;;17.52;74.02;98962.81;5028049;27;103390;-69
2022/07/05 03:55:49;;;;;;;3.30;2.30;;;;;;;17.54;73.84;98960.03;5005276;27;102746;-70
2022/07/05 03:58:17;;;;;;;2.60;2.40;;;;;;;17.45;74.50;98961.72;5004941;27;104039;-69
2022/07/05 04:00:46;;;;;;;2.00;1.90;;;;;;;17.68;73.57;98962.22;5006449;27;105336;-68
2022/07/05 04:03:18;;;;;;;2.70;2.23;;;;;;;17.77;73.20;98977.31;5018857;27;103366;-67
2022/07/05 04:05:47;;;;;;;3.33;2.70;;;;;;;17.49;74.84;98984.47;5006890;27;103322;-67
2022/07/05 04:08:16;;;;;;;3.17;2.87;;;;;;;17.09;76.50;98986.59;5016885;27;104802;-67
2022/07/05 04:10:46;;;;;;;2.72;2.53;;;;;;;17.06;77.46;98992.22;5013533;27;105346;-67
2022/07/05 04:13:18;;;;;;;3.75;2.50;;;;;;;17.49;75.05;98994.34;5014597;27;103293;-67
2022/07/05 04:15:46;;;;;;;2.67;2.03;;;;;;;17.79;73.20;99002.94;5012339;27;102859;-67
2022/07/05 04:18:13;;;;;;;2.20;2.00;;;;;;;18.03;71.87;98993.50;5011362;27;104033;-67
2022/07/05 04:20:43;;;;;;;2.72;2.25;;;;;;;18.15;71.51;98993.13;5012002;27;105315;-67
2022/07/05 04:23:12;;;;;;;2.40;2.00;;;;;;;18.26;70.38;98995.59;5013677;27;104178;-67
2022/07/05 04:25:42;;;;;;;1.75;1.65;;;;;;;18.37;69.24;99007.88;5030153;27;102592;-67
2022/07/05 04:28:30;;;;;;;2.50;2.17;;;;;;;18.45;69.55;98995.44;5033908;27;103928;-71
2022/07/05 04:31:00;;;;;;;2.40;2.20;;;;;;;18.45;69.82;99000.78;5031484;27;103933;-71
2022/07/05 04:33:32;;;;;;;3.03;2.53;;;;;;;18.40;70.28;99000.41;5011176;27;103606;-70
2022/07/05 04:36:00;;;;;;;2.40;2.20;;;;;;;18.40;70.48;99007.59;5015303;27;102939;-71
2022/07/05 04:38:29;;;;;;;4.47;2.50;;;;;;;18.48;70.30;99002.34;5034070;27;103845;-72
2022/07/05 04:41:00;;;;;;;2.45;2.25;;;;;;;18.50;70.62;99011.03;4989343;27;103379;-71
2022/07/05 04:43:30;;;;;;;2.80;2.40;;;;;;;18.63;69.48;99006.16;5008383;27;106028;-71
2022/07/05 04:45:58;;;;;;;2.72;2.50;;;;;;;18.47;71.41;99003.28;5009586;27;102710;-69
2022/07/05 04:48:27;;;;;;;2.60;2.30;;;;;;;18.64;70.30;99007.81;5008136;27;104047;-69
2022/07/05 04:50:55;;;;;;;3.67;2.55;;;;;;;18.75;70.35;99012.13;5015133;27;104292;-69
2022/07/05 04:53:24;;;;;;;2.00;1.90;;;;;;;18.84;69.51;99017.38;5015007;27;105539;-69
2022/07/05 04:55:52;;;;;;;2.58;2.00;;;;;;;18.98;68.67;99016.81;5030711;27;103028;-69
2022/07/05 04:58:21;;;;;;;2.38;1.88;;;;;;;19.06;68.44;99011.50;5029465;27;103263;-69
2022/07/05 05:00:49;;;;;;;3.03;2.40;;;;;;;19.10;68.41;99015.56;5013103;27;103815;-69
2022/07/05 05:03:19;;;;;;;3.85;2.50;;;;;;;19.01;69.12;99013.81;5027006;27;103194;-70
2022/07/05 05:05:47;;;;;;;3.33;2.50;;;;;;;19.11;69.13;99014.56;5027373;27;102882;-69
2022/07/05 05:08:16;;;;;;;2.70;2.20;;;;;;;19.26;68.96;99016.66;5029765;27;104773;-69
2022/07/05 05:10:44;;;;;;;3.30;2.42;;;;;;;19.35;68.81;99013.03;5013951;27;104269;-70
2022/07/05 05:13:12;;;;;;;2.80;2.30;;;;;;;19.42;68.57;99011.44;5026797;27;103155;-70
2022/07/05 05:15:41;;;;;;;2.20;2.00;;;;;;;19.35;68.11;99010.34;5008064;27;102974;-68
2022/07/05 05:18:09;;;;;;;2.47;1.93;;;;;;;19.56;67.03;99013.53;5032037;27;102956;-70
2022/07/05 05:20:38;;;;;;;3.53;2.60;;;;;;;19.38;66.88;99004.69;5021772;27;104164;-68
2022/07/05 05:23:07;;;;;;;2.42;1.80;;;;;;;19.67;64.73;99002.53;5013926;27;103442;-68
2022/07/05 05:25:36;;;;;;;2.00;1.70;;;;;;;19.73;65.45;99003.72;5032877;27;102692;-66
2022/07/05 05:28:04;;;;;;;2.47;1.75;;;;;;;19.70;63.43;99004.03;5024035;27;102731;-67
2022/07/05 05:30:32;;;;;;;2.67;1.55;;;;;;;19.77;61.92;99003.22;5026120;27;103277;-70
2022/07/05 05:33:02;;;;;;;2.43;1.53;;;;;;;19.91;63.03;99007.97;4999300;27;103538;-70
2022/07/05 05:35:30;;;;;;;2.33;1.50;;;;;;;20.14;62.60;99010.91;5017821;27;102743;-71
2022/07/05 05:37:58;;;;;;;4.13;2.00;;;;;;;19.92;62.60;99012.34;5015419;27;103138;-69
2022/07/05 05:40:26;;;;;;;3.45;1.77;;;;;;;19.73;62.81;99020.66;5022602;27;103271;-69
2022/07/05 05:42:57;;;;;;;2.08;1.60;;;;;;;19.90;62.49;99017.00;5015453;27;103216;-70
2022/07/05 05:45:28;;;;;;;3.00;1.35;;;;;;;19.91;61.97;99013.34;4980485;27;103078;-68
2022/07/05 05:48:00;;;;;;;1.67;1.23;;;;;;;20.18;60.53;99018.44;5019804;27;102774;-71
2022/07/05 05:50:31;;;;;;;2.08;1.40;;;;;;;20.30;60.04;99015.47;5022060;27;104418;-69
2022/07/05 05:53:00;;;;;;;1.38;1.15;;;;;;;20.23;58.70;99016.13;5023064;27;103216;-69
2022/07/05 05:55:29;;;;;;;2.17;1.13;;;;;;;20.58;58.43;99014.19;5021261;27;102807;-69
2022/07/05 05:57:57;;;;;;;1.85;1.17;;;;;;;20.75;57.94;99018.56;5024930;27;102883;-69
2022/07/05 06:00:26;;;;;;;1.73;1.00;;;;;;;20.80;57.45;99019.75;5021261;27;104016;-69
2022/07/05 06:02:54;;;;;;;1.60;1.10;;;;;;;20.91;57.46;99018.59;5022886;27;103508;-69
2022/07/05 06:05:22;;;;;;;2.30;1.23;;;;;;;20.98;56.46;99019.56;5023211;27;102737;-69
2022/07/05 06:07:53;;;;;;;2.38;1.13;;;;;;;20.78;56.16;99028.97;5023069;27;103196;-69
2022/07/05 06:10:23;;;;;;;1.40;1.00;;;;;;;20.86;55.38;99030.81;5028998;27;103986;-68
2022/07/05 06:12:52;;;;;;;2.00;1.20;;;;;;;20.13;54.64;99028.81;5027757;27;103437;-69
2022/07/05 06:15:21;;;;;;;1.60;1.10;;;;;;;20.59;55.73;99031.97;5013800;27;102713;-72
2022/07/05 06:17:52;;;;;;;2.93;1.20;;;;;;;20.45;54.79;99030.78;5029591;27;102932;-71
2022/07/05 06:20:22;;;;;;;1.55;1.15;;;;;;;20.66;53.53;99035.69;5025903;27;103470;-71
2022/07/05 06:22:52;;;;;;;3.03;1.10;;;;;;;20.93;52.76;99038.03;5029303;27;103167;-71
2022/07/05 06:25:20;;;;;;;1.40;0.80;;;;;;;21.08;54.13;99038.25;5028166;27;103068;-72
2022/07/05 06:27:55;;;;;;;2.20;1.20;;;;;;;20.94;55.24;99049.63;5028757;27;102647;-71
2022/07/05 06:30:25;;;;;;;1.77;1.10;;;;;;;21.24;54.70;99036.38;5028607;27;103273;-69
2022/07/05 06:32:53;;;;;;;1.10;0.90;;;;;;;21.43;53.99;99039.69;5010624;27;103370;-69
2022/07/05 06:35:22;;;;;;;2.00;1.00;;;;;;;21.72;52.36;99035.44;5027689;27;102596;-69
2022/07/05 06:37:53;;;;;;;2.25;1.15;;;;;;;20.85;54.67;99039.88;5031354;27;104113;-69
2022/07/05 06:40:24;;;;;;;2.50;1.25;;;;;;;20.73;54.94;99042.91;5030387;27;104434;-71
2022/07/05 06:42:57;;;;;;;1.73;1.20;;;;;;;20.66;55.65;99046.44;5029651;27;103204;-69
2022/07/05 06:45:32;;;;;;;3.65;1.15;;;;;;;21.10;54.16;99039.75;5030480;27;102708;-69
2022/07/05 06:48:01;;;;;;;1.40;1.10;;;;;;;21.50;53.80;99046.06;5031140;27;103983;-69
2022/07/05 06:50:31;;;;;;;1.00;0.90;;;;;;;21.85;51.37;99048.31;5031567;27;103505;-71
2022/07/05 06:53:00;;;;;;;1.10;1.00;;;;;;;21.89;51.91;99041.63;5013235;27;103500;-69
2022/07/05 06:55:29;;;;;;;3.60;1.00;;;;;;;21.15;53.05;99053.50;5023595;27;102975;-69
2022/07/05 06:57:59;;;;;;;2.60;1.20;;;;;;;21.39;54.77;99050.78;5033975;27;103250;-69
2022/07/05 07:00:43;;;;;;;3.63;1.07;;;;;;;21.36;52.10;99055.69;5028915;27;103193;-71
2022/07/05 07:03:33;;;;;;;2.00;1.20;;;;;;;21.96;51.91;99050.66;5032326;27;103198;-69
2022/07/05 07:06:22;;;;;;;2.78;0.93;;;;;;;22.37;51.09;99048.59;5029011;27;102669;-69
2022/07/05 07:11:36;;;;;;;1.98;1.02;;;;;;;22.81;50.86;99056.91;5014507;27;104681;-72
2022/07/05 07:14:04;;;;;;;2.08;1.00;;;;;;;22.32;51.06;99056.34;5024837;27;103223;-71
2022/07/05 07:16:31;;;;;;;3.13;1.10;;;;;;;22.46;51.40;99061.81;5030924;27;103744;-72
2022/07/05 07:19:00;;;;;;;1.73;1.07;;;;;;;22.16;51.39;99056.44;5030017;27;103892;-69
2022/07/05 07:21:43;;;;;;;3.07;1.20;;;;;;;22.17;51.43;99055.44;5031202;27;103774;-69
2022/07/05 07:24:15;;;;;;;1.80;1.02;;;;;;;22.62;50.73;99060.91;5029496;27;103066;-69
2022/07/05 07:29:28;;;;;;;2.90;0.95;;;;;;;22.56;51.35;99058.91;5031022;27;103932;-70
2022/07/05 07:31:56;;;;;;;3.05;1.23;;;;;;;22.97;52.18;99059.47;5027473;27;104277;-70
2022/07/05 07:34:27;;;;;;;1.60;1.10;;;;;;;23.14;51.24;99061.03;5023431;27;103199;-71
2022/07/05 07:36:55;;;;;;;1.88;1.17;;;;;;;22.74;51.68;99059.47;5029866;27;102957;-69
2022/07/05 07:39:26;;;;;;;2.40;1.20;;;;;;;23.12;51.05;99068.47;5031358;27;104339;-69
2022/07/05 07:41:53;;;;;;;1.63;0.93;;;;;;;23.07;50.57;99066.28;5027055;27;103370;-69
2022/07/05 07:44:23;;;;;;;2.53;1.10;;;;;;;24.06;48.58;99062.44;5011319;27;103191;-68
2022/07/05 07:46:51;;;;;;;2.47;1.00;;;;;;;24.18;49.08;99061.81;5029089;27;103213;-69
2022/07/05 07:49:19;;;;;;;1.20;0.80;;;;;;;24.39;47.47;99069.13;5023119;27;104077;-71
2022/07/05 07:51:49;;;;;;;3.22;1.40;;;;;;;24.45;48.15;99064.84;5028878;27;103716;-68
2022/07/05 07:54:17;;;;;;;2.42;1.08;;;;;;;24.49;45.77;99069.66;5032480;27;102924;-70
2022/07/05 07:56:47;;;;;;;2.40;1.10;;;;;;;24.82;46.19;99066.50;5032191;27;102806;-71
2022/07/05 07:59:15;;;;;;;2.78;1.30;;;;;;;24.65;46.80;99069.41;5031365;27;104188;-71
2022/07/05 08:01:43;;;;;;;3.23;1.00;;;;;;;25.57;46.50;99064.88;5026974;27;103209;-71
2022/07/05 08:04:14;;;;;;;1.93;0.90;;;;;;;26.18;43.35;99073.19;5030187;27;103288;-71
2022/07/05 08:06:43;;;;;;;2.63;1.20;;;;;;;25.08;44.16;99070.28;5029246;27;103064;-71
2022/07/05 08:09:12;;;;;;;2.20;0.82;;;;;;;26.63;41.81;99061.69;5028559;27;103114;-68
2022/07/05 08:11:45;;;;;;;1.20;1.10;;;;;;;26.63;42.47;99077.97;5029319;27;103962;-68
2022/07/05 08:14:14;;;;;;;2.60;0.98;;;;;;;25.48;42.97;99062.53;5028816;27;103212;-72
2022/07/05 08:16:42;;;;;;;1.80;1.05;;;;;;;25.16;43.56;99067.44;5031395;27;102658;-71
2022/07/05 08:22:04;;;;;;;1.50;0.83;;;;;;;26.83;41.45;99068.03;5031548;27;103788;-71
2022/07/05 08:24:32;;;;;;;3.00;1.00;;;;;;;27.38;41.08;99066.81;5029834;27;103209;-71
2022/07/05 08:27:00;;;;;;;1.55;1.10;;;;;;;27.51;40.54;99068.69;5031342;27;102675;-69
2022/07/05 08:29:29;;;;;;;2.43;1.20;;;;;;;27.01;40.72;99068.25;5030208;27;102700;-69
2022/07/05 08:31:57;;;;;;;3.10;1.10;;;;;;;27.37;41.40;99059.72;5011150;27;104084;-69
2022/07/05 08:34:25;;;;;;;2.28;1.50;;;;;;;27.46;41.15;99072.06;5026523;27;103206;-69
2022/07/05 08:36:53;;;;;;;2.35;1.30;;;;;;;27.55;40.64;99065.38;5013784;27;103156;-69
2022/07/05 08:39:21;;;;;;;2.90;1.52;;;;;;;27.63;41.30;99058.88;5029956;27;103800;-69
2022/07/05 08:41:51;;;;;;;3.10;1.40;;;;;;;28.57;39.17;99059.25;5028790;27;103792;-69
2022/07/05 08:44:20;;;;;;;3.45;1.17;;;;;;;28.86;38.34;99049.69;5028322;27;103349;-69
2022/07/05 08:46:52;;;;;;;3.70;1.00;;;;;;;28.99;38.91;99055.88;5028725;27;102664;-71
2022/07/05 08:49:23;;;;;;;3.87;1.20;;;;;;;28.65;38.57;99051.69;5030682;27;103998;-73
2022/07/05 08:51:55;;;;;;;2.78;0.80;;;;;;;28.88;37.48;99050.31;5026191;27;104079;-71
2022/07/05 08:54:25;;;;;;;2.63;0.90;;;;;;;29.35;36.88;99054.34;5022361;27;103179;-70
2022/07/05 08:56:53;;;;;;;3.10;1.17;;;;;;;28.57;40.59;99054.63;5023873;27;103088;-70
2022/07/05 08:59:41;;;;;;;3.30;1.20;;;;;;;28.45;38.67;99050.94;5027300;27;104043;-70
2022/07/05 09:02:14;;;;;;;3.58;1.17;;;;;;;28.15;38.30;99047.91;5029691;27;103251;-68
2022/07/05 09:04:45;;;;;;;3.88;1.20;;;;;;;28.83;37.32;99045.50;5030046;27;103377;-70
2022/07/05 09:07:17;;;;;;;3.38;1.05;;;;;;;27.69;38.92;99062.63;5026803;27;102894;-70
2022/07/05 09:09:51;;;;;;;3.83;1.10;;;;;;;28.30;40.03;99060.38;5028786;27;102892;-70
2022/07/05 09:12:19;;;;;;;2.40;1.08;;;;;;;28.50;40.14;99050.28;5030274;27;103482;-70
2022/07/05 09:14:52;;;;;;;1.63;1.00;;;;;;;27.34;40.48;99059.31;5025054;27;103509;-70
2022/07/05 09:17:22;;;;;;;2.03;0.90;;;;;;;28.42;39.15;99047.81;5011236;27;103063;-72
2022/07/05 09:20:07;;;;;;;3.67;1.00;;;;;;;29.94;40.15;99051.91;5029097;27;102793;-72
2022/07/05 09:22:47;;;;;;;1.70;0.85;;;;;;;30.91;34.86;99051.72;5010997;27;104147;-74
2022/07/05 09:25:20;;;;;;;2.30;1.00;;;;;;;29.47;34.80;99052.59;5027614;27;103466;-71
2022/07/05 09:27:50;;;;;;;2.45;0.95;;;;;;;29.83;35.20;99053.50;5030738;27;102885;-70
2022/07/05 09:30:31;;;;;;;1.50;0.80;;;;;;;30.91;34.28;99050.88;5030062;27;103846;-73
2022/07/05 09:33:04;;;;;;;1.73;0.90;;;;;;;30.79;36.98;99058.22;5026993;27;103293;-71
2022/07/05 09:35:32;;;;;;;3.75;1.13;;;;;;;30.84;35.06;99058.34;5012297;27;104313;-73
2022/07/05 09:38:02;;;;;;;2.97;0.97;;;;;;;30.76;35.79;99061.38;5025682;27;102976;-70
2022/07/05 09:40:33;;;;;;;1.33;0.90;;;;;;;31.97;33.80;99064.44;5030871;27;102777;-72
2022/07/05 09:43:15;;;;;;;1.50;0.90;;;;;;;30.55;34.38;99060.00;5023719;27;103963;-72
2022/07/05 09:45:55;;;;;;;1.27;1.00;;;;;;;29.75;34.48;99064.66;5011201;27;103190;-74
2022/07/05 09:48:25;;;;;;;1.70;0.80;;;;;;;29.61;35.12;99065.84;5027192;27;102778;-72
2022/07/05 09:51:09;;;;;;;2.03;0.90;;;;;;;29.47;32.95;99063.47;5017536;27;103115;-71
2022/07/05 09:53:58;;;;;;;1.48;0.70;;;;;;;30.28;32.65;99067.66;5025844;27;103324;-72
2022/07/05 09:56:44;;;;;;;1.38;0.80;;;;;;;29.69;33.40;99065.56;5024275;27;103294;-72
2022/07/05 09:59:17;;;;;;;3.03;0.90;;;;;;;29.50;36.70;99069.31;5025880;27;102905;-72
2022/07/05 10:01:45;;;;;;;2.20;0.88;;;;;;;29.27;35.60;99064.47;5021140;27;104397;-72
2022/07/05 10:04:16;;;;;;;2.67;0.80;;;;;;;29.00;34.37;99056.69;5037909;27;104126;-73
2022/07/05 10:06:44;;;;;;;1.17;0.73;;;;;;;30.28;36.85;99062.22;5027319;27;103146;-71
2022/07/05 10:09:14;;;;;;;1.60;1.00;;;;;;;30.19;36.09;99052.66;5023998;27;102828;-71
2022/07/05 10:11:44;;;;;;;1.50;0.70;;;;;;;30.99;33.25;99048.66;5010298;27;104214;-73
2022/07/05 10:14:16;;;;;;;2.95;0.90;;;;;;;30.68;33.14;99050.81;5025814;27;103661;-73
2022/07/05 10:16:47;;;;;;;0.87;0.80;;;;;;;29.84;34.15;99054.31;5025842;27;103380;-74
2022/07/05 10:19:21;;;;;;;0.95;0.80;;;;;;;30.36;32.65;99058.34;5010481;27;102760;-73
2022/07/05 10:21:50;;;;;;;1.65;0.70;;;;;;;30.90;32.19;99049.22;5026905;27;103766;-74
2022/07/05 10:24:38;;;;;;;1.25;0.60;;;;;;;31.37;31.96;99050.16;5025634;27;103016;-74
2022/07/05 10:27:08;;;;;;;1.90;0.80;;;;;;;30.06;33.41;99057.44;5026516;27;103188;-74
2022/07/05 10:29:37;;;;;;;1.40;0.93;;;;;;;29.94;33.77;99049.19;5028301;27;103859;-74
2022/07/05 10:32:09;;;;;;;2.22;1.15;;;;;;;31.22;33.77;99052.50;5026781;27;102846;-74
2022/07/05 10:34:40;;;;;;;2.22;1.00;;;;;;;30.98;32.40;99051.66;5007629;27;104205;-76
2022/07/05 10:37:30;;;;;;;2.33;0.80;;;;;;;31.93;30.41;99053.16;5033826;27;103149;-74
2022/07/05 10:39:59;;;;;;;1.53;0.90;;;;;;;31.95;29.43;99050.19;5033668;27;102933;-75
2022/07/05 10:42:30;;;;;;;3.15;0.88;;;;;;;30.12;31.36;99057.34;5035362;27;104127;-75
2022/07/05 10:45:02;;;;;;;0.90;0.70;;;;;;;29.71;33.56;99043.53;5013171;27;104332;-72
2022/07/05 10:47:30;;;;;;;1.23;0.80;;;;;;;30.30;32.70;99051.91;5030172;27;103196;-73
2022/07/05 10:50:05;;;;;;;1.90;0.80;;;;;;;29.37;32.41;99052.22;5036045;27;102736;-73
2022/07/05 10:52:33;;;;;;;1.47;0.60;;;;;;;29.05;31.88;99043.28;5021047;27;102955;-73
2022/07/05 10:55:24;;;;;;;2.28;0.73;;;;;;;30.28;32.74;99054.03;5023620;27;104367;-72
2022/07/05 10:58:29;;;;;;;1.27;0.80;;;;;;;31.15;31.06;99046.34;5017126;27;104488;-72
2022/07/05 11:01:45;;;;;;;1.50;0.75;;;;;;;31.48;29.72;99047.47;5030381;27;102884;-72
2022/07/05 11:04:29;;;;;;;3.38;0.80;;;;;;;30.80;32.03;99051.66;5030997;27;104182;-73
2022/07/05 11:06:59;;;;;;;2.45;0.90;;;;;;;29.35;32.13;99046.19;5033692;27;104724;-71
2022/07/05 11:09:30;;;;;;;1.70;0.80;;;;;;;30.01;32.57;99049.94;5030377;27;103204;-75
2022/07/05 11:12:09;;;;;;;1.45;0.93;;;;;;;29.26;34.01;99054.63;5032838;27;102611;-76
2022/07/05 11:15:07;;;;;;;1.02;0.60;;;;;;;31.18;32.04;99052.19;5031445;27;103347;-75
2022/07/05 11:17:36;;;;;;;1.90;0.90;;;;;;;30.23;32.56;99051.13;5029155;27;103063;-76
2022/07/05 11:20:32;;;;;;;1.77;0.75;;;;;;;30.02;33.52;99046.16;5016936;27;103271;-78
2022/07/05 11:23:07;;;;;;;3.03;1.00;;;;;;;30.11;32.32;99050.25;5030652;27;102841;-75
2022/07/05 11:25:38;;;;;;;1.60;0.70;;;;;;;30.14;33.27;99043.53;5027841;27;103643;-83
2022/07/05 11:28:14;;;;;;;1.50;0.63;;;;;;;30.72;32.24;99049.28;5012590;27;103008;-76
2022/07/05 11:30:54;;;;;;;3.92;1.02;;;;;;;30.51;31.86;99044.34;5012587;27;104346;-75
2022/07/05 11:33:37;;;;;;;1.35;0.80;;;;;;;29.78;31.77;99049.78;5013255;27;102898;-74
2022/07/05 11:36:08;;;;;;;1.85;0.80;;;;;;;29.07;33.02;99052.03;5033219;27;102879;-73
2022/07/05 11:39:07;;;;;;;0.87;0.60;;;;;;;31.49;30.22;99043.69;5034127;27;103348;-73
2022/07/05 11:41:43;;;;;;;1.00;0.70;;;;;;;30.13;32.11;99042.69;5028610;27;103212;-74
2022/07/05 11:44:12;;;;;;;1.95;0.90;;;;;;;29.27;34.02;99041.88;5032827;27;102855;-73
2022/07/05 11:46:42;;;;;;;1.67;0.80;;;;;;;30.22;31.59;99035.88;5014002;27;102711;-74
2022/07/05 11:49:20;;;;;;;3.83;0.90;;;;;;;29.08;33.19;99038.22;5032258;27;104481;-76
2022/07/05 11:51:54;;;;;;;0.90;0.70;;;;;;;30.65;33.07;99033.03;5019387;27;102852;-75
2022/07/05 11:54:25;;;;;;;1.60;0.80;;;;;;;30.01;32.22;99030.06;5015440;27;103002;-75